Time;durP1;ratioP1;P1;durP2;ratioP2;P2;SDS_P1;SDS_P2;PMS_P1;PMS_P2;Temp;Humidity;BMP_temperature;BMP_pressure;BME280_temperature;BME280_humidity;BME280_pressure;Samples;Min_cycle;Max_cycle;Signal;HPM_P1;HPM_P2
2023/06/13 00:01:50;;;;;;;8.60;3.95;;;;;;;;;;8421002;28;20122;-86
2023/06/13 00:05:54;;;;;;;7.97;3.80;;;;;;;;;;8435935;28;20488;-86
2023/06/13 00:09:56;;;;;;;9.68;3.70;;;;;;;;;;8428402;28;20111;-86
2023/06/13 00:14:01;;;;;;;7.60;3.85;;;;;;;;;;8416143;28;20449;-86
2023/06/13 00:18:05;;;;;;;6.05;3.45;;;;;;;;;;8408197;28;20517;-86
2023/06/13 00:22:09;;;;;;;7.05;3.75;;;;;;;;;;8430584;28;20493;-86
2023/06/13 00:26:12;;;;;;;6.60;3.17;;;;;;;;;;8402305;28;20044;-86
2023/06/13 00:30:17;;;;;;;7.22;3.47;;;;;;;;;;8428700;28;20075;-86
2023/06/13 00:34:20;;;;;;;4.68;3.10;;;;;;;;;;8420437;28;20136;-87
2023/06/13 00:38:23;;;;;;;5.65;3.33;;;;;;;;;;8432929;28;20040;-86
2023/06/13 00:42:26;;;;;;;5.93;3.13;;;;;;;;;;8392439;28;20043;-85
2023/06/13 00:46:34;;;;;;;6.35;3.35;;;;;;;;;;8420614;28;20072;-86
2023/06/13 00:50:40;;;;;;;5.90;3.10;;;;;;;;;;8427498;28;20044;-87
2023/06/13 00:54:43;;;;;;;6.47;3.15;;;;;;;;;;8426758;28;20201;-86
2023/06/13 00:58:46;;;;;;;5.45;3.47;;;;;;;;;;8406526;28;20050;-85
2023/06/13 01:02:55;;;;;;;5.88;3.38;;;;;;;;;;8434050;28;20465;-86
2023/06/13 01:07:00;;;;;;;6.07;3.40;;;;;;;;;;8401955;28;20068;-86
2023/06/13 01:11:10;;;;;;;6.90;2.83;;;;;;;;;;8416269;28;20056;-87
2023/06/13 01:15:18;;;;;;;4.85;3.20;;;;;;;;;;8411507;28;20040;-86
2023/06/13 01:19:37;;;;;;;5.00;2.90;;;;;;;;;;8393670;28;20123;-87
2023/06/13 01:23:49;;;;;;;6.47;3.53;;;;;;;;;;8406637;28;20107;-85
2023/06/13 01:27:55;;;;;;;7.03;3.50;;;;;;;;;;8396783;28;20123;-87
2023/06/13 01:31:59;;;;;;;5.35;3.15;;;;;;;;;;8392445;28;20124;-92
2023/06/13 01:36:03;;;;;;;5.35;3.03;;;;;;;;;;8412218;28;20083;-86
2023/06/13 01:40:07;;;;;;;5.95;2.80;;;;;;;;;;8418168;28;20052;-85
2023/06/13 01:44:16;;;;;;;5.35;3.08;;;;;;;;;;8418550;28;20165;-85
2023/06/13 01:48:25;;;;;;;5.55;3.22;;;;;;;;;;8435706;28;20502;-86
2023/06/13 01:52:38;;;;;;;5.57;3.60;;;;;;;;;;8427316;28;20045;-89
2023/06/13 01:56:46;;;;;;;6.45;3.55;;;;;;;;;;8400004;28;20035;-88
2023/06/13 02:00:58;;;;;;;4.45;2.90;;;;;;;;;;8427343;28;20488;-89
2023/06/13 02:05:01;;;;;;;5.50;3.43;;;;;;;;;;8437507;28;20127;-88
2023/06/13 02:09:07;;;;;;;5.55;2.65;;;;;;;;;;8432083;28;20047;-88
2023/06/13 02:13:10;;;;;;;5.55;3.13;;;;;;;;;;8392256;28;20076;-88
2023/06/13 02:17:15;;;;;;;5.65;3.25;;;;;;;;;;8405123;28;20047;-87
2023/06/13 02:21:43;;;;;;;6.53;3.17;;;;;;;;;;8393473;28;20048;-95
2023/06/13 02:25:51;;;;;;;162.25;41.08;;;;;;;;;;8370240;28;20057;-88
2023/06/13 02:29:54;;;;;;;155.52;44.53;;;;;;;;;;8411598;28;20047;-88
2023/06/13 02:33:58;;;;;;;47.08;20.35;;;;;;;;;;8387822;28;20119;-88
2023/06/13 02:38:06;;;;;;;41.20;17.70;;;;;;;;;;8396252;28;20056;-89
2023/06/13 02:42:23;;;;;;;45.20;18.65;;;;;;;;;;8425695;28;20070;-91
2023/06/13 02:46:46;;;;;;;47.08;21.23;;;;;;;;;;8398475;28;20056;-91
2023/06/13 02:51:02;;;;;;;21.35;9.65;;;;;;;;;;8427566;28;20051;-90
2023/06/13 02:55:08;;;;;;;44.35;17.52;;;;;;;;;;8417665;28;20047;-89
2023/06/13 02:59:12;;;;;;;20.27;9.48;;;;;;;;;;8436419;28;20100;-89
2023/06/13 03:03:18;;;;;;;14.70;6.80;;;;;;;;;;8432749;28;20124;-91
2023/06/13 03:07:23;;;;;;;10.15;5.07;;;;;;;;;;8434275;28;20055;-89
2023/06/13 03:11:32;;;;;;;9.13;4.60;;;;;;;;;;8430380;28;20051;-89
2023/06/13 03:15:36;;;;;;;7.38;4.38;;;;;;;;;;8431241;28;20044;-89
2023/06/13 03:19:41;;;;;;;7.05;4.47;;;;;;;;;;8422857;28;20048;-89
2023/06/13 03:24:11;;;;;;;7.00;4.35;;;;;;;;;;8436984;28;20078;-89
2023/06/13 03:28:22;;;;;;;7.05;4.35;;;;;;;;;;8416008;28;20120;-89
2023/06/13 03:32:28;;;;;;;8.25;4.43;;;;;;;;;;8406579;28;20229;-89
2023/06/13 03:36:33;;;;;;;9.82;5.80;;;;;;;;;;8399744;28;20048;-88
2023/06/13 03:41:02;;;;;;;11.48;5.97;;;;;;;;;;8408282;28;20045;-89
2023/06/13 03:45:06;;;;;;;11.35;6.47;;;;;;;;;;8388562;28;20119;-89
2023/06/13 03:49:10;;;;;;;11.95;6.43;;;;;;;;;;8440792;28;20051;-89
2023/06/13 03:53:13;;;;;;;13.40;6.95;;;;;;;;;;8438022;28;20048;-88
2023/06/13 03:57:17;;;;;;;11.55;6.55;;;;;;;;;;8422524;28;20123;-88
2023/06/13 04:01:20;;;;;;;13.02;6.68;;;;;;;;;;8433968;28;20123;-89
2023/06/13 04:05:25;;;;;;;11.18;6.25;;;;;;;;;;8411860;28;20036;-88
2023/06/13 04:09:39;;;;;;;9.77;6.25;;;;;;;;;;8401337;28;20112;-88
2023/06/13 04:13:44;;;;;;;14.38;7.38;;;;;;;;;;8396551;28;20097;-88
2023/06/13 04:17:47;;;;;;;11.10;6.68;;;;;;;;;;8405159;28;20071;-88
2023/06/13 04:21:51;;;;;;;11.25;6.78;;;;;;;;;;8411972;28;20111;-88
2023/06/13 04:25:57;;;;;;;14.15;7.40;;;;;;;;;;8410957;28;20051;-88
2023/06/13 04:30:02;;;;;;;15.07;8.32;;;;;;;;;;8403331;28;20063;-89
2023/06/13 04:34:07;;;;;;;11.23;7.00;;;;;;;;;;8410186;28;20052;-89
2023/06/13 04:38:37;;;;;;;9.32;5.95;;;;;;;;;;8427014;28;20050;-89
2023/06/13 04:47:48;;;;;;;12.68;6.22;;;;;;;;;;8428441;28;20056;-89
2023/06/13 05:10:14;;;;;;;8.50;4.90;;;;;;;;;;8448564;28;20048;-89
2023/06/13 05:14:40;;;;;;;12.57;7.05;;;;;;;;;;8422922;28;20058;-89
2023/06/13 05:18:44;;;;;;;9.05;5.15;;;;;;;;;;8438131;28;20070;-89
2023/06/13 05:22:52;;;;;;;5.68;3.67;;;;;;;;;;8430206;28;20035;-89
2023/06/13 05:27:28;;;;;;;4.70;3.13;;;;;;;;;;8363201;23;20107;-89
2023/06/13 05:31:33;;;;;;;8.93;4.45;;;;;;;;;;8322641;28;20050;-89
2023/06/13 05:35:36;;;;;;;6.97;3.70;;;;;;;;;;8299985;28;20046;-90
2023/06/13 05:44:19;;;;;;;17.25;8.68;;;;;;;;;;8252918;28;20130;-89
2023/06/13 05:48:24;;;;;;;5.05;3.00;;;;;;;;;;8304135;28;20173;-90
2023/06/13 05:52:32;;;;;;;4.07;2.95;;;;;;;;;;8309564;28;20406;-91
2023/06/13 05:56:36;;;;;;;5.10;2.90;;;;;;;;;;8305203;28;20124;-91
2023/06/13 06:00:41;;;;;;;4.63;2.78;;;;;;;;;;8303794;28;20101;-88
2023/06/13 06:04:45;;;;;;;5.30;3.50;;;;;;;;;;8298936;28;20045;-90
2023/06/13 06:08:50;;;;;;;4.30;2.40;;;;;;;;;;8301367;28;20042;-91
2023/06/13 06:12:53;;;;;;;4.00;2.60;;;;;;;;;;8303292;28;20507;-90
2023/06/13 06:17:00;;;;;;;3.47;2.30;;;;;;;;;;8305846;28;20049;-90
2023/06/13 06:21:06;;;;;;;17.23;8.00;;;;;;;;;;8305540;28;20050;-90
2023/06/13 06:25:12;;;;;;;4.03;2.83;;;;;;;;;;8305977;28;20050;-90
2023/06/13 06:29:17;;;;;;;5.47;3.20;;;;;;;;;;8310314;28;20081;-90
2023/06/13 06:33:28;;;;;;;5.93;3.08;;;;;;;;;;8305895;28;20058;-91
2023/06/13 06:37:40;;;;;;;5.53;2.90;;;;;;;;;;8305829;28;20073;-91
2023/06/13 06:41:45;;;;;;;5.10;2.30;;;;;;;;;;8300015;28;20086;-91
2023/06/13 06:45:48;;;;;;;3.03;2.17;;;;;;;;;;8308461;28;20438;-90
2023/06/13 06:49:52;;;;;;;3.72;2.40;;;;;;;;;;8302601;28;20046;-90
2023/06/13 06:53:56;;;;;;;3.20;2.10;;;;;;;;;;8299193;28;20050;-91
2023/06/13 06:57:59;;;;;;;3.17;2.30;;;;;;;;;;8298557;28;20119;-88
2023/06/13 07:02:03;;;;;;;3.45;2.20;;;;;;;;;;8302352;28;20156;-89
2023/06/13 07:06:18;;;;;;;3.22;2.50;;;;;;;;;;8311734;28;20065;-90
2023/06/13 07:10:24;;;;;;;8.35;2.60;;;;;;;;;;8301423;28;20549;-89
2023/06/13 07:14:28;;;;;;;3.63;2.50;;;;;;;;;;8305112;28;20096;-89
2023/06/13 07:18:31;;;;;;;3.47;2.80;;;;;;;;;;8300803;28;20125;-89
2023/06/13 07:22:38;;;;;;;5.57;2.67;;;;;;;;;;8304755;28;20129;-88
2023/06/13 07:26:41;;;;;;;4.47;2.35;;;;;;;;;;8291756;28;20070;-89
2023/06/13 07:30:46;;;;;;;6.03;2.90;;;;;;;;;;8306397;28;20065;-88
2023/06/13 07:34:50;;;;;;;3.00;2.00;;;;;;;;;;8305875;28;20132;-88
2023/06/13 07:38:54;;;;;;;3.97;2.40;;;;;;;;;;8303516;28;20049;-93
2023/06/13 07:42:59;;;;;;;4.75;2.20;;;;;;;;;;8303811;28;20124;-94
2023/06/13 07:47:02;;;;;;;3.72;2.45;;;;;;;;;;8302963;28;20124;-91
2023/06/13 07:51:05;;;;;;;2.72;2.10;;;;;;;;;;8301654;28;20057;-91
2023/06/13 07:55:10;;;;;;;3.75;2.70;;;;;;;;;;8302155;28;20069;-91
2023/06/13 07:59:14;;;;;;;2.00;1.80;;;;;;;;;;8301478;28;20068;-90
2023/06/13 08:03:19;;;;;;;1.92;1.52;;;;;;;;;;8307344;28;20052;-91
2023/06/13 08:07:22;;;;;;;1.75;1.50;;;;;;;;;;8286327;28;20104;-91
2023/06/13 08:11:26;;;;;;;3.78;1.95;;;;;;;;;;8270342;28;20047;-91
2023/06/13 08:15:29;;;;;;;3.55;2.47;;;;;;;;;;8301040;28;20046;-91
2023/06/13 08:19:32;;;;;;;6.28;3.30;;;;;;;;;;8302341;28;20052;-91
2023/06/13 08:23:35;;;;;;;3.40;2.22;;;;;;;;;;8302797;28;20085;-91
2023/06/13 08:27:43;;;;;;;2.38;1.48;;;;;;;;;;8294648;28;20105;-91
2023/06/13 08:31:46;;;;;;;1.80;1.52;;;;;;;;;;8288066;28;20123;-91
2023/06/13 08:35:49;;;;;;;3.35;2.15;;;;;;;;;;8301720;28;20125;-91
2023/06/13 08:39:52;;;;;;;4.95;2.80;;;;;;;;;;8288905;28;20072;-91
2023/06/13 08:43:58;;;;;;;2.55;1.73;;;;;;;;;;8297938;28;20054;-91
2023/06/13 08:48:01;;;;;;;1.48;1.38;;;;;;;;;;8293826;28;20528;-90
2023/06/13 08:52:08;;;;;;;2.13;1.60;;;;;;;;;;8302852;28;20537;-90
2023/06/13 08:56:11;;;;;;;1.73;1.50;;;;;;;;;;8300661;28;20077;-90
2023/06/13 09:00:19;;;;;;;2.35;1.70;;;;;;;;;;8302272;28;20087;-90
2023/06/13 09:04:27;;;;;;;2.67;1.30;;;;;;;;;;8289779;28;20510;-91
2023/06/13 09:08:30;;;;;;;1.50;1.40;;;;;;;;;;8289894;28;20046;-91
2023/06/13 09:12:34;;;;;;;3.90;1.30;;;;;;;;;;8300770;28;20402;-91
2023/06/13 09:16:39;;;;;;;1.45;1.25;;;;;;;;;;8288643;28;20050;-90
2023/06/13 09:20:42;;;;;;;1.67;1.42;;;;;;;;;;8300330;28;20050;-91
2023/06/13 09:24:47;;;;;;;1.77;1.50;;;;;;;;;;8301424;28;20483;-90
2023/06/13 09:28:53;;;;;;;1.27;1.10;;;;;;;;;;8299885;28;20157;-90
2023/06/13 09:32:59;;;;;;;2.05;1.30;;;;;;;;;;8289904;28;20042;-90
2023/06/13 09:37:06;;;;;;;1.30;1.20;;;;;;;;;;8286863;28;20120;-90
2023/06/13 09:41:14;;;;;;;1.73;1.52;;;;;;;;;;8275779;28;20045;-90
2023/06/13 09:45:21;;;;;;;1.83;1.73;;;;;;;;;;8302163;28;20544;-90
2023/06/13 09:49:29;;;;;;;2.13;1.40;;;;;;;;;;8298449;28;20494;-90
2023/06/13 09:53:32;;;;;;;1.30;1.20;;;;;;;;;;8300795;28;20077;-89
2023/06/13 09:57:37;;;;;;;1.42;1.33;;;;;;;;;;8301231;28;20474;-90
2023/06/13 10:02:19;;;;;;;5.45;3.22;;;;;;;;;;8291085;28;20046;-90
2023/06/13 10:06:25;;;;;;;5.95;4.05;;;;;;;;;;8280453;28;20042;-90
2023/06/13 10:10:29;;;;;;;3.70;2.47;;;;;;;;;;8287126;28;20046;-90
2023/06/13 10:14:37;;;;;;;7.22;4.30;;;;;;;;;;8287668;28;20046;-91
2023/06/13 10:18:42;;;;;;;4.90;2.67;;;;;;;;;;8297209;28;20050;-90
2023/06/13 10:22:49;;;;;;;5.78;3.95;;;;;;;;;;8281278;28;20042;-90
2023/06/13 10:26:57;;;;;;;4.93;3.28;;;;;;;;;;8284221;28;20058;-91
2023/06/13 10:31:11;;;;;;;14.35;7.18;;;;;;;;;;8299000;28;20045;-90
2023/06/13 10:35:50;;;;;;;6.22;3.83;;;;;;;;;;8292533;28;20533;-93
2023/06/13 10:40:54;;;;;;;5.57;2.80;;;;;;;;;;8291052;28;20422;-92
2023/06/13 10:45:04;;;;;;;9.85;4.65;;;;;;;;;;8294918;28;20057;-92
2023/06/13 10:49:15;;;;;;;6.55;2.80;;;;;;;;;;8293928;28;20045;-90
2023/06/13 10:53:37;;;;;;;5.88;3.15;;;;;;;;;;8295694;28;20108;-91
2023/06/13 10:57:53;;;;;;;18.98;5.75;;;;;;;;;;8299375;28;20104;-91
2023/06/13 11:02:00;;;;;;;7.18;3.17;;;;;;;;;;8301066;28;20074;-91
2023/06/13 11:06:10;;;;;;;13.52;5.20;;;;;;;;;;8308005;28;20077;-90
2023/06/13 11:10:15;;;;;;;7.43;4.82;;;;;;;;;;8300388;28;20517;-92
2023/06/13 11:14:31;;;;;;;5.40;2.53;;;;;;;;;;8298282;28;20128;-90
2023/06/13 11:18:37;;;;;;;8.93;4.18;;;;;;;;;;8306374;28;20585;-91
2023/06/13 11:22:42;;;;;;;5.38;2.80;;;;;;;;;;8299103;28;20077;-90
2023/06/13 11:26:46;;;;;;;5.75;2.75;;;;;;;;;;8303717;28;20216;-91
2023/06/13 11:30:52;;;;;;;5.15;3.03;;;;;;;;;;8275915;28;20069;-90
2023/06/13 11:35:00;;;;;;;6.13;3.28;;;;;;;;;;8291996;28;20510;-88
2023/06/13 11:39:06;;;;;;;7.07;3.33;;;;;;;;;;8297871;28;20046;-90
2023/06/13 11:43:10;;;;;;;5.82;2.92;;;;;;;;;;8303340;28;20050;-90
2023/06/13 11:47:26;;;;;;;7.80;3.53;;;;;;;;;;8310639;28;20644;-91
2023/06/13 11:51:33;;;;;;;5.95;3.50;;;;;;;;;;8302288;28;20050;-91
2023/06/13 11:55:37;;;;;;;7.70;4.15;;;;;;;;;;8305448;28;20045;-90
2023/06/13 11:59:47;;;;;;;4.78;2.80;;;;;;;;;;8489935;23;20255;-90
2023/06/13 12:03:53;;;;;;;7.15;3.97;;;;;;;;;;8353281;28;20484;-91
2023/06/13 12:08:11;;;;;;;5.43;2.80;;;;;;;;;;8350708;28;20061;-91
2023/06/13 12:12:22;;;;;;;6.72;3.53;;;;;;;;;;8349550;28;20061;-91
2023/06/13 12:16:26;;;;;;;6.88;3.63;;;;;;;;;;8363035;28;20092;-91
2023/06/13 12:25:12;;;;;;;7.68;3.30;;;;;;;;;;8352302;28;20140;-90
2023/06/13 12:29:27;;;;;;;6.60;4.00;;;;;;;;;;8352845;28;20079;-90
2023/06/13 12:33:36;;;;;;;6.05;3.30;;;;;;;;;;8359580;28;20068;-90
2023/06/13 12:37:42;;;;;;;4.57;2.67;;;;;;;;;;8335413;28;20174;-90
2023/06/13 12:41:55;;;;;;;4.25;2.58;;;;;;;;;;8358695;28;20056;-89
2023/06/13 12:46:19;;;;;;;6.10;3.05;;;;;;;;;;8325723;28;20053;-90
2023/06/13 12:50:43;;;;;;;4.53;2.70;;;;;;;;;;8241448;28;20054;-90
2023/06/13 12:55:05;;;;;;;7.80;3.78;;;;;;;;;;8268230;28;20062;-90
2023/06/13 12:59:36;;;;;;;5.82;3.55;;;;;;;;;;8252685;28;20050;-90
2023/06/13 13:03:39;;;;;;;5.05;3.42;;;;;;;;;;8296174;28;20181;-91
2023/06/13 13:07:43;;;;;;;4.35;2.65;;;;;;;;;;8287079;28;20061;-89
2023/06/13 13:11:48;;;;;;;5.32;2.80;;;;;;;;;;8265548;28;20081;-90
2023/06/13 13:15:51;;;;;;;5.30;3.00;;;;;;;;;;8290920;28;20189;-90
2023/06/13 13:20:05;;;;;;;5.07;2.63;;;;;;;;;;8306050;28;20058;-91
2023/06/13 13:24:26;;;;;;;6.18;3.22;;;;;;;;;;8274667;28;20510;-89
2023/06/13 13:28:37;;;;;;;5.80;2.67;;;;;;;;;;8282462;28;20446;-89
2023/06/13 13:32:51;;;;;;;4.25;3.03;;;;;;;;;;8313539;28;20045;-90
2023/06/13 13:37:07;;;;;;;5.05;2.90;;;;;;;;;;8357201;28;20071;-89
2023/06/13 13:41:10;;;;;;;4.78;2.75;;;;;;;;;;8371416;28;20053;-88
2023/06/13 13:45:18;;;;;;;4.63;2.67;;;;;;;;;;8363998;28;20044;-90
2023/06/13 13:49:22;;;;;;;3.70;2.28;;;;;;;;;;8354745;28;20087;-90
2023/06/13 13:53:26;;;;;;;6.95;3.08;;;;;;;;;;8360124;28;20053;-90
2023/06/13 13:57:46;;;;;;;5.13;2.90;;;;;;;;;;8365233;28;20041;-89
2023/06/13 14:10:41;;;;;;;4.15;2.95;;;;;;;;;;8265766;28;20421;-90
2023/06/13 14:14:44;;;;;;;4.53;2.53;;;;;;;;;;8326537;28;20116;-91
2023/06/13 14:18:52;;;;;;;3.42;2.35;;;;;;;;;;8328046;28;20054;-90
2023/06/13 14:22:55;;;;;;;6.55;2.38;;;;;;;;;;8299925;28;20049;-90
2023/06/13 14:27:07;;;;;;;6.93;2.78;;;;;;;;;;8315034;28;20057;-91
2023/06/13 14:31:10;;;;;;;4.53;2.70;;;;;;;;;;8334058;28;20049;-92
2023/06/13 14:35:17;;;;;;;3.33;2.40;;;;;;;;;;8321671;28;20069;-90
2023/06/13 14:39:24;;;;;;;3.50;2.33;;;;;;;;;;8301998;28;20136;-93
2023/06/13 14:43:28;;;;;;;4.50;2.72;;;;;;;;;;8333462;28;20576;-91
2023/06/13 14:47:32;;;;;;;5.00;2.90;;;;;;;;;;8335990;28;20072;-92
2023/06/13 14:51:39;;;;;;;21.73;12.73;;;;;;;;;;8322227;28;20076;-91
2023/06/13 14:55:41;;;;;;;40.42;17.17;;;;;;;;;;8311276;28;20100;-90
2023/06/13 14:59:50;;;;;;;114.78;46.33;;;;;;;;;;8337026;28;20049;-90
2023/06/13 15:04:00;;;;;;;93.47;35.30;;;;;;;;;;8370280;28;20053;-91
2023/06/13 15:08:07;;;;;;;9.98;5.07;;;;;;;;;;8376855;28;20033;-91
2023/06/13 15:12:11;;;;;;;9.43;4.57;;;;;;;;;;8384104;28;20049;-90
2023/06/13 15:16:20;;;;;;;73.05;22.27;;;;;;;;;;8344388;28;20662;-90
2023/06/13 15:20:26;;;;;;;216.68;72.85;;;;;;;;;;8366803;28;20087;-91
2023/06/13 15:24:45;;;;;;;43.85;20.48;;;;;;;;;;8374987;28;20068;-91
2023/06/13 15:28:49;;;;;;;12.52;6.95;;;;;;;;;;8364486;28;20119;-92
2023/06/13 15:32:59;;;;;;;12.38;4.97;;;;;;;;;;8362734;28;20052;-91
2023/06/13 15:37:06;;;;;;;8.38;5.15;;;;;;;;;;8366369;28;20048;-91
2023/06/13 15:41:16;;;;;;;13.73;8.50;;;;;;;;;;8366971;28;20052;-91
2023/06/13 15:45:20;;;;;;;11.00;6.40;;;;;;;;;;8368458;28;20037;-91
2023/06/13 15:49:24;;;;;;;7.60;3.80;;;;;;;;;;8366018;28;20052;-91
2023/06/13 15:53:27;;;;;;;8.13;4.28;;;;;;;;;;8360087;28;20155;-90
2023/06/13 15:57:32;;;;;;;5.70;3.90;;;;;;;;;;8367430;28;20045;-92
2023/06/13 16:01:35;;;;;;;7.53;5.38;;;;;;;;;;8349580;28;20065;-90
2023/06/13 16:05:39;;;;;;;6.82;4.55;;;;;;;;;;8339568;28;20061;-91
2023/06/13 16:09:45;;;;;;;7.05;4.13;;;;;;;;;;8336714;28;20045;-90
2023/06/13 16:13:50;;;;;;;14.00;7.07;;;;;;;;;;8316314;28;20080;-90
2023/06/13 16:17:56;;;;;;;28.50;25.52;;;;;;;;;;8328387;28;20045;-90
2023/06/13 16:22:02;;;;;;;14.55;13.15;;;;;;;;;;8325957;28;20516;-90
2023/06/13 16:26:06;;;;;;;10.80;5.13;;;;;;;;;;8326516;28;20049;-89
2023/06/13 16:30:17;;;;;;;37.75;12.85;;;;;;;;;;8327687;28;20493;-89
2023/06/13 16:34:20;;;;;;;56.10;14.73;;;;;;;;;;8313237;28;20053;-90
2023/06/13 16:38:26;;;;;;;7.07;3.95;;;;;;;;;;8329853;28;20076;-92
2023/06/13 16:42:38;;;;;;;7.55;4.45;;;;;;;;;;8308095;28;20049;-90
2023/06/13 16:46:44;;;;;;;8.93;4.80;;;;;;;;;;8310945;28;20049;-91
2023/06/13 16:50:47;;;;;;;167.98;50.80;;;;;;;;;;8317570;28;20046;-90
2023/06/13 16:54:51;;;;;;;13.32;6.50;;;;;;;;;;8307913;28;20505;-92
2023/06/13 16:58:54;;;;;;;17.48;9.20;;;;;;;;;;8320120;28;20728;-90
2023/06/13 17:02:58;;;;;;;9.55;5.35;;;;;;;;;;8326833;28;20049;-90
2023/06/13 17:07:03;;;;;;;8.77;5.75;;;;;;;;;;8350815;28;20055;-91
2023/06/13 17:11:06;;;;;;;8.23;5.97;;;;;;;;;;8356833;28;20052;-91
2023/06/13 17:15:10;;;;;;;9.02;5.55;;;;;;;;;;8356734;28;20056;-90
2023/06/13 17:19:16;;;;;;;10.10;6.82;;;;;;;;;;8359581;28;20049;-92
2023/06/13 17:23:19;;;;;;;8.60;6.38;;;;;;;;;;8360721;28;20769;-91
2023/06/13 17:27:25;;;;;;;10.23;6.20;;;;;;;;;;8353826;28;20049;-91
2023/06/13 17:31:29;;;;;;;10.32;7.53;;;;;;;;;;8355557;28;20406;-91
2023/06/13 17:35:35;;;;;;;10.90;8.20;;;;;;;;;;8359483;28;20044;-89
2023/06/13 17:39:42;;;;;;;10.50;7.55;;;;;;;;;;8367959;28;20040;-89
2023/06/13 17:44:03;;;;;;;12.43;7.68;;;;;;;;;;8379336;28;20041;-89
2023/06/13 17:48:17;;;;;;;13.18;9.23;;;;;;;;;;8373440;28;20045;-89
2023/06/13 17:52:31;;;;;;;11.80;8.33;;;;;;;;;;8346878;28;20508;-89
2023/06/13 17:56:38;;;;;;;14.30;8.55;;;;;;;;;;8353235;28;20040;-88
2023/06/13 18:00:41;;;;;;;16.30;10.25;;;;;;;;;;8356600;28;20077;-88
2023/06/13 18:04:44;;;;;;;14.60;9.32;;;;;;;;;;8367919;28;20071;-89
2023/06/13 18:08:50;;;;;;;17.83;10.82;;;;;;;;;;8369515;28;20073;-88
2023/06/13 18:12:53;;;;;;;14.63;10.52;;;;;;;;;;8373035;28;20135;-87
2023/06/13 18:16:57;;;;;;;17.20;10.90;;;;;;;;;;8369980;28;20392;-88
2023/06/13 18:21:03;;;;;;;18.83;11.73;;;;;;;;;;8371044;28;20064;-89
2023/06/13 18:30:39;;;;;;;16.98;10.38;;;;;;;;;;8325611;28;20058;-89
2023/06/13 18:34:57;;;;;;;15.57;10.93;;;;;;;;;;8290356;28;20073;-88
2023/06/13 18:39:08;;;;;;;16.95;10.50;;;;;;;;;;8302379;28;20058;-89
2023/06/13 18:43:13;;;;;;;15.57;10.00;;;;;;;;;;8283362;28;20054;-88
2023/06/13 18:47:30;;;;;;;16.58;10.88;;;;;;;;;;8286540;28;20076;-88
2023/06/13 18:56:33;;;;;;;15.90;10.38;;;;;;;;;;8198472;29;20110;-88
2023/06/13 19:00:43;;;;;;;17.45;10.80;;;;;;;;;;8207654;29;20134;-89
2023/06/13 19:04:48;;;;;;;15.68;10.05;;;;;;;;;;8204899;29;20066;-88
2023/06/13 19:08:53;;;;;;;16.40;10.30;;;;;;;;;;8212369;28;21580;-88
2023/06/13 19:13:00;;;;;;;20.00;12.25;;;;;;;;;;8242078;28;20423;-88
2023/06/13 19:17:07;;;;;;;16.00;10.27;;;;;;;;;;8281110;28;20050;-88
2023/06/13 19:21:17;;;;;;;14.98;9.77;;;;;;;;;;8259824;28;20059;-88
2023/06/13 19:25:24;;;;;;;14.18;9.88;;;;;;;;;;8290810;28;20062;-88
2023/06/13 19:29:31;;;;;;;17.65;10.18;;;;;;;;;;8332229;28;20076;-88
2023/06/13 19:33:34;;;;;;;18.33;11.18;;;;;;;;;;8316408;28;20494;-88
2023/06/13 19:37:38;;;;;;;16.63;10.25;;;;;;;;;;8334988;28;20052;-87
2023/06/13 19:41:41;;;;;;;18.77;11.05;;;;;;;;;;8335478;28;20136;-88
2023/06/13 19:45:47;;;;;;;25.40;13.40;;;;;;;;;;8335114;28;20037;-88
2023/06/13 19:49:51;;;;;;;19.77;12.85;;;;;;;;;;8322504;28;20042;-88
2023/06/13 19:53:54;;;;;;;19.48;11.98;;;;;;;;;;8303584;28;20077;-88
2023/06/13 19:57:58;;;;;;;19.02;11.98;;;;;;;;;;8329288;28;20096;-88
2023/06/13 20:02:15;;;;;;;18.75;11.00;;;;;;;;;;8326953;28;20132;-89
2023/06/13 20:06:20;;;;;;;19.98;12.13;;;;;;;;;;8300964;28;20073;-88
2023/06/13 20:10:24;;;;;;;20.17;12.60;;;;;;;;;;8314659;28;20046;-88
2023/06/13 20:14:28;;;;;;;20.52;13.05;;;;;;;;;;8316847;28;20613;-88
2023/06/13 20:18:33;;;;;;;21.98;13.75;;;;;;;;;;8311250;28;20052;-88
2023/06/13 20:22:39;;;;;;;34.30;20.15;;;;;;;;;;8309422;28;20050;-88
2023/06/13 20:26:42;;;;;;;20.00;12.48;;;;;;;;;;8336064;28;20041;-87
2023/06/13 20:30:46;;;;;;;18.00;10.50;;;;;;;;;;8304972;28;20081;-88
2023/06/13 20:34:51;;;;;;;15.48;9.75;;;;;;;;;;8294034;28;20144;-88
2023/06/13 20:38:55;;;;;;;16.58;10.55;;;;;;;;;;8308390;28;20054;-88
2023/06/13 20:42:59;;;;;;;20.80;11.90;;;;;;;;;;8321722;28;20144;-89
2023/06/13 20:47:02;;;;;;;14.55;9.88;;;;;;;;;;8334352;28;20053;-88
2023/06/13 20:51:07;;;;;;;15.85;10.38;;;;;;;;;;8333516;28;20128;-88
2023/06/13 20:55:11;;;;;;;14.45;9.52;;;;;;;;;;8324769;28;20051;-89
2023/06/13 20:59:14;;;;;;;14.18;9.32;;;;;;;;;;8313945;28;20053;-89
2023/06/13 21:03:17;;;;;;;14.63;8.85;;;;;;;;;;8342684;28;20057;-89
2023/06/13 21:07:27;;;;;;;16.75;9.95;;;;;;;;;;8334390;28;20053;-88
2023/06/13 21:11:32;;;;;;;13.90;10.30;;;;;;;;;;8358635;28;20421;-94
2023/06/13 21:15:36;;;;;;;15.60;9.32;;;;;;;;;;8367737;28;20052;-89
2023/06/13 21:19:39;;;;;;;12.82;8.95;;;;;;;;;;8353274;28;20060;-88
2023/06/13 21:23:43;;;;;;;14.10;7.53;;;;;;;;;;8341070;28;20128;-88
2023/06/13 21:27:47;;;;;;;12.68;8.05;;;;;;;;;;8337421;28;20041;-88
2023/06/13 21:31:50;;;;;;;11.13;7.10;;;;;;;;;;8366112;28;20047;-89
2023/06/13 21:35:53;;;;;;;11.20;6.25;;;;;;;;;;8361324;28;20443;-88
2023/06/13 21:39:59;;;;;;;9.75;6.55;;;;;;;;;;8357489;28;20167;-88
2023/06/13 21:44:02;;;;;;;10.30;7.18;;;;;;;;;;8364465;28;20049;-88
2023/06/13 21:48:05;;;;;;;9.02;6.70;;;;;;;;;;8364778;28;20068;-89
2023/06/13 21:52:08;;;;;;;9.00;6.05;;;;;;;;;;8365096;28;20136;-88
2023/06/13 21:56:13;;;;;;;12.38;6.93;;;;;;;;;;8351170;28;20144;-89
2023/06/13 22:00:17;;;;;;;9.80;6.65;;;;;;;;;;8364670;28;20076;-89
2023/06/13 22:04:20;;;;;;;13.32;7.03;;;;;;;;;;8352631;28;20057;-88
2023/06/13 22:08:23;;;;;;;10.55;6.63;;;;;;;;;;8345665;28;20124;-89
2023/06/13 22:12:29;;;;;;;10.13;5.97;;;;;;;;;;8346360;28;20116;-89
2023/06/13 22:16:35;;;;;;;9.10;4.80;;;;;;;;;;8364910;28;20037;-89
2023/06/13 22:20:38;;;;;;;12.45;5.68;;;;;;;;;;8365644;28;20083;-94
2023/06/13 22:24:41;;;;;;;15.65;7.55;;;;;;;;;;8360239;28;20453;-88
2023/06/13 22:28:47;;;;;;;16.00;6.05;;;;;;;;;;8358415;28;20124;-89
2023/06/13 22:32:51;;;;;;;8.48;5.00;;;;;;;;;;8364435;28;20040;-88
2023/06/13 22:36:54;;;;;;;10.52;6.95;;;;;;;;;;8364914;28;20123;-88
2023/06/13 22:40:58;;;;;;;11.80;5.47;;;;;;;;;;8337436;28;20489;-89
2023/06/13 22:45:03;;;;;;;10.98;5.78;;;;;;;;;;8350639;28;20049;-88
2023/06/13 22:49:06;;;;;;;10.48;5.85;;;;;;;;;;8337603;28;20108;-88
2023/06/13 22:53:09;;;;;;;8.50;5.47;;;;;;;;;;8363524;28;20084;-88
2023/06/13 22:57:12;;;;;;;8.40;5.25;;;;;;;;;;8370472;28;20068;-88
2023/06/13 23:01:17;;;;;;;7.40;4.68;;;;;;;;;;8356293;28;20087;-88
2023/06/13 23:05:19;;;;;;;13.25;6.47;;;;;;;;;;8369972;28;20049;-89
2023/06/13 23:09:22;;;;;;;9.48;5.68;;;;;;;;;;8369697;28;20049;-89
2023/06/13 23:13:25;;;;;;;10.18;5.75;;;;;;;;;;8370146;28;20124;-88
2023/06/13 23:17:30;;;;;;;10.13;5.78;;;;;;;;;;8369240;28;20049;-90
2023/06/13 23:21:33;;;;;;;8.57;5.10;;;;;;;;;;8361526;28;20056;-91
2023/06/13 23:25:36;;;;;;;9.07;5.20;;;;;;;;;;8350325;28;20128;-89
2023/06/13 23:29:39;;;;;;;11.25;5.40;;;;;;;;;;8368593;28;20076;-89
2023/06/13 23:33:43;;;;;;;7.68;5.18;;;;;;;;;;8354492;28;20104;-89
2023/06/13 23:37:46;;;;;;;10.50;5.55;;;;;;;;;;8361893;28;20045;-90
2023/06/13 23:41:49;;;;;;;11.07;6.35;;;;;;;;;;8361893;28;20127;-88
2023/06/13 23:45:52;;;;;;;10.50;5.78;;;;;;;;;;8368063;28;20124;-89
2023/06/13 23:49:57;;;;;;;9.85;6.10;;;;;;;;;;8368124;28;20116;-89
2023/06/13 23:54:00;;;;;;;11.00;6.35;;;;;;;;;;8361631;28;20374;-89
2023/06/13 23:58:03;;;;;;;10.02;5.88;;;;;;;;;;8366183;28;20051;-89
